Time;durP1;ratioP1;P1;durP2;ratioP2;P2;SDS_P1;SDS_P2;PMS_P1;PMS_P2;Temp;Humidity;BMP_temperature;BMP_pressure;BME280_temperature;BME280_humidity;BME280_pressure;Samples;Min_cycle;Max_cycle;Signal;HPM_P1;HPM_P2
2022/04/12 00:01:05;;;;;;;5.68;3.20;;;9.10;56.90;;;4.81;78.25;95193.16;5032720;28;20041;-58
2022/04/12 00:03:31;;;;;;;5.63;3.38;;;9.00;56.80;;;4.80;77.98;95190.78;5033108;28;20021;-58
2022/04/12 00:05:57;;;;;;;5.03;3.28;;;9.00;56.80;;;4.76;78.62;95193.06;5033013;28;20048;-57
2022/04/12 00:08:29;;;;;;;4.95;3.63;;;9.00;56.90;;;4.74;78.38;95192.53;5005406;28;20017;-58
2022/04/12 00:11:05;;;;;;;5.68;3.72;;;8.90;57.10;;;4.80;78.83;95194.22;5034077;28;20554;-58
2022/04/12 00:13:30;;;;;;;5.53;3.20;;;8.90;57.30;;;4.80;78.68;95194.22;5034036;28;20108;-57
2022/04/12 00:15:59;;;;;;;5.55;3.60;;;8.90;57.20;;;4.71;79.25;95194.84;5032674;28;20037;-58
2022/04/12 00:21:15;;;;;;;6.35;3.88;;;8.80;57.40;;;4.72;78.43;95196.44;5032817;28;20562;-56
2022/04/12 00:23:40;;;;;;;6.38;4.03;;;8.80;57.20;;;4.67;77.88;95205.06;5028703;28;20025;-57
2022/04/12 00:26:06;;;;;;;5.70;3.60;;;8.80;57.10;;;4.55;79.60;95207.75;5049289;28;20133;-57
2022/04/12 00:28:35;;;;;;;8.63;4.80;;;8.70;57.20;;;4.56;79.19;95211.19;5032424;28;20104;-58
2022/04/12 00:31:04;;;;;;;6.75;3.90;;;8.70;57.20;;;4.44;79.80;95203.31;5032498;28;20447;-57
2022/04/12 00:33:36;;;;;;;6.88;4.20;;;8.70;57.30;;;4.40;79.66;95208.25;5015833;28;20049;-58
2022/04/12 00:36:04;;;;;;;6.30;4.45;;;8.60;57.30;;;4.37;79.99;95211.34;5033805;28;20071;-57
2022/04/12 00:38:35;;;;;;;7.80;4.30;;;8.60;57.30;;;4.26;80.11;95203.47;5033428;28;20029;-57
2022/04/12 00:41:05;;;;;;;10.23;4.10;;;8.50;57.40;;;4.17;80.23;95209.13;5032097;28;20037;-56
2022/04/12 00:43:38;;;;;;;7.15;4.30;;;8.50;57.40;;;4.06;79.94;95191.50;5033450;28;20026;-53
2022/04/12 00:46:04;;;;;;;;;;;8.40;57.60;;;4.02;79.78;95194.84;5032800;28;20028;-56
2022/04/12 00:48:32;;;;;;;7.40;4.28;;;8.30;57.10;;;3.89;80.13;95188.00;5033368;28;19909;-56
2022/04/12 00:51:01;;;;;;;8.10;3.92;;;8.20;57.10;;;3.82;80.93;95197.84;5017864;28;20056;-58
2022/04/12 00:53:31;;;;;;;7.25;3.88;;;8.20;57.40;;;3.66;81.15;95191.44;5045537;28;20026;-56
2022/04/12 00:55:58;;;;;;;6.63;3.70;;;8.10;57.60;;;3.69;81.32;95202.31;5044509;28;20022;-58
2022/04/12 00:58:24;;;;;;;6.88;3.83;;;8.00;57.60;;;3.61;81.20;95199.25;5031473;28;20044;-57
2022/04/12 01:00:53;;;;;;;4.57;2.90;;;8.00;57.70;;;3.97;78.98;95203.44;5032206;28;20128;-48
2022/04/12 01:03:19;;;;;;;8.52;2.60;;;8.00;58.30;;;4.52;75.88;95205.56;5031917;28;20424;-53
2022/04/12 01:05:51;;;;;;;4.63;2.50;;;8.10;58.90;;;4.74;75.12;95197.81;5031923;28;20021;-49
2022/04/12 01:08:21;;;;;;;3.67;2.40;;;8.20;59.20;;;4.70;74.76;95194.03;5018652;28;20022;-48
2022/04/12 01:10:58;;;;;;;4.45;2.28;;;8.30;59.20;;;4.66;75.19;95202.66;5025528;28;20037;-48
2022/04/12 01:13:30;;;;;;;4.00;2.10;;;8.40;59.10;;;4.43;76.27;95200.91;5032020;28;20049;-48
2022/04/12 01:15:59;;;;;;;3.60;2.15;;;8.40;58.80;;;4.39;75.76;95198.75;5015299;28;20404;-52
2022/04/12 01:18:25;;;;;;;2.35;1.70;;;8.40;58.70;;;4.45;74.70;95201.47;5015476;28;20373;-49
2022/04/12 01:21:00;;;;;;;3.00;1.70;;;8.50;58.60;;;4.45;74.82;95193.53;5031521;28;20549;-50
2022/04/12 01:24:04;;;;;;;2.63;1.85;;;8.50;58.60;;;4.45;75.16;95190.91;5031525;28;20029;-49
2022/04/12 01:26:31;;;;;;;3.05;2.00;;;8.50;58.60;;;4.52;73.79;95175.75;5018550;28;20080;-48
2022/04/12 01:29:00;;;;;;;5.35;2.10;;;8.50;58.50;;;4.64;72.72;95179.16;5044484;28;20049;-49
2022/04/12 01:31:29;;;;;;;2.55;1.70;;;8.60;58.50;;;4.76;72.14;95179.06;5027637;28;20032;-50
2022/04/12 01:33:55;;;;;;;4.65;1.98;;;8.60;58.30;;;4.75;72.20;95175.63;5044777;28;20025;-53
2022/04/12 01:36:27;;;;;;;6.30;1.67;;;8.60;58.10;;;4.73;72.29;95180.38;5044427;28;20061;-52
2022/04/12 01:38:52;;;;;;;3.35;1.65;;;8.70;58.00;;;4.70;71.59;95182.66;5012932;28;20100;-48
2022/04/12 01:41:24;;;;;;;2.30;2.10;;;8.70;57.80;;;4.60;72.21;95181.44;5012610;28;20141;-50
2022/04/12 01:43:53;;;;;;;2.58;1.85;;;8.70;57.70;;;4.60;72.68;95185.91;5044614;28;20097;-48
2022/04/12 01:46:34;;;;;;;2.00;1.77;;;8.70;57.60;;;4.57;72.70;95183.75;5012679;28;20022;-50
2022/04/12 01:49:00;;;;;;;3.72;1.83;;;8.70;57.60;;;4.57;72.58;95194.31;5012784;28;20022;-49
2022/04/12 01:51:32;;;;;;;3.38;2.05;;;8.70;57.40;;;4.49;72.82;95184.16;5031504;28;20084;-51
2022/04/12 01:53:57;;;;;;;3.88;2.00;;;8.70;57.40;;;4.39;73.44;95182.91;4995207;28;20041;-53
2022/04/12 01:56:31;;;;;;;3.97;2.08;;;8.60;57.30;;;4.29;73.80;95177.44;5044482;28;20551;-49
2022/04/12 01:59:00;;;;;;;3.50;2.20;;;8.60;57.20;;;4.23;74.13;95188.13;5012656;28;20481;-50
2022/04/12 02:01:33;;;;;;;3.58;2.13;;;8.50;57.00;;;4.13;73.22;95188.72;5044214;28;20128;-50
2022/04/12 02:03:58;;;;;;;2.97;2.15;;;8.50;57.00;;;4.13;73.48;95192.16;5044362;28;20017;-51
2022/04/12 02:06:27;;;;;;;2.70;1.85;;;8.40;56.90;;;4.11;73.09;95182.91;5044402;28;20030;-52
2022/04/12 02:08:53;;;;;;;2.92;1.92;;;8.40;56.90;;;4.05;73.40;95192.53;5047388;28;20508;-49
2022/04/12 02:11:25;;;;;;;6.30;2.13;;;8.30;56.70;;;3.89;75.37;95195.91;5016687;28;20034;-49
2022/04/12 02:13:54;;;;;;;8.30;2.22;;;8.30;56.70;;;3.69;74.13;95186.50;5015233;28;20062;-48
2022/04/12 02:16:19;;;;;;;3.00;1.98;;;8.20;56.70;;;3.59;74.52;95198.66;5048234;28;20072;-49
2022/04/12 02:18:45;;;;;;;6.28;2.55;;;8.10;56.60;;;3.47;74.83;95198.66;5031804;28;20065;-48
2022/04/12 02:21:11;;;;;;;4.53;2.53;;;7.90;56.60;;;3.36;75.11;95192.38;5048173;28;20568;-49
2022/04/12 02:23:37;;;;;;;6.45;2.45;;;7.90;56.70;;;3.21;75.77;95200.72;5016414;28;20021;-48
2022/04/12 02:26:06;;;;;;;4.10;2.65;;;7.80;56.70;;;3.17;75.74;95189.03;5016358;28;20080;-50
2022/04/12 02:28:31;;;;;;;3.30;2.40;;;7.70;56.80;;;3.13;76.00;95187.88;5047982;28;20485;-49
2022/04/12 02:31:00;;;;;;;7.88;3.28;;;7.60;56.80;;;3.07;76.42;95195.88;5047978;28;20044;-48
2022/04/12 02:33:26;;;;;;;4.88;3.20;;;7.60;56.90;;;2.85;77.01;95185.91;5016320;28;20033;-48
2022/04/12 02:35:58;;;;;;;4.95;2.90;;;7.50;57.00;;;2.83;77.04;95182.69;5031172;28;20022;-48
2022/04/12 02:38:27;;;;;;;6.30;3.10;;;7.30;57.20;;;3.03;74.85;95174.47;5016129;28;20492;-48
2022/04/12 02:40:59;;;;;;;5.63;2.50;;;7.30;57.50;;;3.15;75.83;95175.28;5015819;28;20079;-48
2022/04/12 02:43:27;;;;;;;7.10;3.15;;;7.30;57.70;;;3.09;76.83;95172.78;5014452;28;20485;-51
2022/04/12 02:45:53;;;;;;;3.90;2.90;;;7.30;57.90;;;3.04;75.39;95162.13;5047601;28;20026;-48
2022/04/12 02:48:21;;;;;;;4.50;2.72;;;7.30;57.90;;;3.08;74.90;95171.97;5030901;28;20026;-49
2022/04/12 02:50:47;;;;;;;4.80;2.97;;;7.30;58.00;;;3.07;74.94;95170.38;5040288;28;20044;-49
2022/04/12 02:53:16;;;;;;;5.70;2.63;;;7.30;57.90;;;3.07;73.86;95161.66;5014723;28;20026;-49
2022/04/12 02:55:45;;;;;;;4.35;2.78;;;7.30;57.90;;;3.40;72.38;95155.84;5047660;28;20029;-50
2022/04/12 02:58:11;;;;;;;8.85;2.78;;;7.40;58.00;;;3.63;71.75;95165.56;5047455;28;20401;-48
2022/04/12 03:00:39;;;;;;;4.15;2.42;;;7.50;58.00;;;3.85;70.59;95155.22;5047363;28;20073;-48
2022/04/12 03:03:05;;;;;;;6.90;2.92;;;7.50;57.90;;;3.94;71.31;95182.81;5014440;28;20050;-51
2022/04/12 03:05:34;;;;;;;4.85;2.90;;;7.60;57.80;;;3.79;71.93;95180.69;5047511;28;20026;-49
2022/04/12 03:08:02;;;;;;;4.75;3.10;;;7.70;57.60;;;3.59;72.69;95167.06;5015433;28;20388;-48
2022/04/12 03:10:28;;;;;;;5.38;2.90;;;7.70;57.30;;;3.41;73.82;95170.59;5030624;28;20384;-49
2022/04/12 03:12:54;;;;;;;6.18;3.05;;;7.60;57.20;;;3.20;74.75;95164.09;5014489;28;20022;-48
2022/04/12 03:15:20;;;;;;;4.60;2.63;;;7.60;57.00;;;3.08;75.17;95171.19;5047054;28;20182;-52
2022/04/12 03:17:49;;;;;;;4.78;2.72;;;7.50;56.90;;;3.01;75.31;95174.72;5015484;28;20136;-49
2022/04/12 03:20:23;;;;;;;5.63;2.70;;;7.40;56.90;;;2.87;76.33;95165.41;5014162;28;20037;-53
2022/04/12 03:22:51;;;;;;;5.00;3.03;;;7.30;57.00;;;2.77;76.91;95167.81;5047141;28;20105;-48
2022/04/12 03:25:20;;;;;;;5.10;2.85;;;7.30;57.00;;;2.66;77.56;95174.63;5015242;28;20028;-49
2022/04/12 03:27:49;;;;;;;4.43;2.92;;;7.20;57.00;;;2.55;77.93;95167.50;5029770;28;20452;-48
2022/04/12 03:30:24;;;;;;;4.53;2.83;;;7.10;57.10;;;2.51;78.32;95175.06;5013840;28;20095;-48
2022/04/12 03:32:53;;;;;;;9.15;3.17;;;7.00;57.30;;;2.47;77.80;95168.63;5014862;28;20391;-48
2022/04/12 03:35:24;;;;;;;8.43;2.92;;;7.00;57.40;;;2.36;78.76;95164.13;5014780;28;20026;-50
2022/04/12 03:38:02;;;;;;;5.35;3.20;;;6.90;57.50;;;2.33;78.72;95169.03;5046754;28;20040;-49
2022/04/12 03:40:36;;;;;;;5.32;3.33;;;6.80;57.60;;;2.26;79.03;95159.41;5014440;28;20500;-50
2022/04/12 03:43:04;;;;;;;5.60;3.22;;;6.80;57.70;;;2.25;79.65;95164.88;5046593;28;20058;-51
2022/04/12 03:45:32;;;;;;;8.98;3.60;;;6.70;57.70;;;2.09;79.80;95148.69;5014926;28;20496;-48
2022/04/12 03:47:58;;;;;;;6.22;3.03;;;6.70;57.90;;;2.14;80.34;95163.81;5046441;28;20081;-53
2022/04/12 03:50:27;;;;;;;5.40;3.15;;;6.60;58.00;;;2.16;79.76;95171.47;5042242;28;20500;-48
2022/04/12 03:52:56;;;;;;;5.25;3.40;;;6.60;58.20;;;2.07;80.28;95160.47;5013326;28;20037;-48
2022/04/12 03:58:19;;;;;;;6.85;3.42;;;6.50;58.40;;;2.14;79.91;95165.66;5041828;28;20036;-49
2022/04/12 04:00:51;;;;;;;4.13;3.00;;;6.50;58.30;;;2.12;79.79;95163.22;5044242;28;20042;-49
2022/04/12 04:03:19;;;;;;;7.25;3.45;;;6.50;58.30;;;2.11;79.59;95160.84;5046323;28;20064;-48
2022/04/12 04:05:53;;;;;;;7.45;3.22;;;6.40;58.20;;;2.01;79.29;95159.53;5014553;28;20029;-48
2022/04/12 04:08:31;;;;;;;4.80;3.20;;;6.40;58.20;;;1.85;81.04;95155.69;5013234;28;20030;-50
2022/04/12 04:10:57;;;;;;;6.88;3.45;;;6.40;58.30;;;1.86;81.01;95159.09;5046020;28;20361;-48
2022/04/12 04:13:29;;;;;;;6.88;3.53;;;6.30;58.20;;;1.78;81.67;95168.06;5029405;28;20022;-50
2022/04/12 04:15:56;;;;;;;8.27;3.92;;;6.30;58.50;;;1.73;82.23;95175.03;5045604;28;20029;-48
2022/04/12 04:18:26;;;;;;;7.18;4.20;;;6.20;58.60;;;1.67;82.73;95174.06;5029386;28;20089;-49
2022/04/12 04:20:58;;;;;;;5.32;3.35;;;6.20;58.90;;;1.71;81.92;95163.91;5045782;28;20428;-48
2022/04/12 04:23:27;;;;;;;6.63;3.60;;;6.10;58.90;;;1.66;82.65;95163.75;5012801;28;20038;-48
2022/04/12 04:25:53;;;;;;;6.97;3.83;;;6.10;58.90;;;1.64;82.07;95168.44;5045899;28;20026;-49
2022/04/12 04:28:22;;;;;;;7.07;3.70;;;6.10;58.90;;;1.58;82.82;95164.88;5013778;28;20385;-49
2022/04/12 04:30:54;;;;;;;6.15;3.13;;;6.00;58.90;;;1.53;82.47;95167.34;5028686;28;20036;-49
2022/04/12 04:33:22;;;;;;;4.97;3.28;;;6.00;59.00;;;1.50;82.92;95175.66;5014064;28;20080;-48
2022/04/12 04:35:49;;;;;;;8.43;3.72;;;5.90;58.80;;;1.39;83.10;95169.31;5044874;28;20034;-49
2022/04/12 04:38:15;;;;;;;7.93;4.30;;;5.90;59.00;;;1.35;82.77;95163.69;5045692;28;20033;-49
2022/04/12 04:40:42;;;;;;;7.28;4.03;;;5.90;59.10;;;1.35;82.69;95170.75;5013657;28;20543;-50
2022/04/12 04:43:08;;;;;;;6.40;3.72;;;5.80;59.10;;;1.32;83.55;95174.63;5045571;28;20018;-48
2022/04/12 04:45:37;;;;;;;5.35;3.72;;;5.80;59.20;;;1.28;84.20;95173.44;5045531;28;20018;-48
2022/04/12 04:48:04;;;;;;;7.13;3.72;;;5.80;59.50;;;1.26;84.14;95164.97;5045607;28;20571;-49
2022/04/12 04:50:32;;;;;;;6.57;3.67;;;5.80;59.70;;;1.43;83.91;95178.34;5037085;28;20030;-49
2022/04/12 04:53:10;;;;;;;6.72;4.45;;;5.80;60.00;;;1.81;82.38;95174.72;5012434;28;20563;-48
2022/04/12 04:55:37;;;;;;;8.70;3.95;;;5.90;60.60;;;2.01;81.31;95174.50;5000380;28;20488;-49
2022/04/12 04:58:04;;;;;;;8.02;3.60;;;5.90;60.80;;;2.13;80.78;95172.72;5028563;28;20116;-50
2022/04/12 05:00:34;;;;;;;6.65;3.90;;;6.00;61.00;;;2.11;80.96;95168.72;5044937;28;20475;-49
2022/04/12 05:03:01;;;;;;;9.27;3.88;;;6.10;61.00;;;2.19;80.81;95169.19;5027871;28;20026;-48
2022/04/12 05:05:30;;;;;;;6.53;3.67;;;6.20;61.00;;;2.34;80.64;95168.81;5045147;28;20489;-50
2022/04/12 05:07:59;;;;;;;5.60;3.42;;;6.40;61.10;;;2.62;80.07;95173.47;5044819;28;20045;-49
2022/04/12 05:10:32;;;;;;;7.38;3.72;;;6.50;61.10;;;2.90;79.26;95177.31;5045064;28;20574;-48
2022/04/12 05:12:59;;;;;;;;;;;6.60;61.20;;;3.10;78.80;95169.09;5028531;28;20030;-50
2022/04/12 05:15:28;;;;;;;11.90;3.60;;;6.80;60.90;;;3.24;78.22;95178.41;5008649;28;19909;-48
2022/04/12 05:17:56;;;;;;;9.02;3.53;;;7.00;60.80;;;3.21;78.10;95176.22;5024931;28;20400;-52
2022/04/12 05:20:25;;;;;;;9.38;3.85;;;7.10;60.40;;;3.20;77.49;95175.41;5014818;28;20029;-51
2022/04/12 05:22:52;;;;;;;5.65;3.80;;;7.20;60.30;;;3.37;75.94;95162.38;4999082;28;20036;-48
2022/04/12 05:25:22;;;;;;;5.63;2.80;;;7.40;60.10;;;3.53;76.15;95171.41;5015135;28;20068;-48
2022/04/12 05:27:48;;;;;;;4.47;3.08;;;7.60;60.10;;;3.76;75.36;95172.41;5031382;28;20183;-47
2022/04/12 05:30:21;;;;;;;5.13;3.17;;;7.70;59.80;;;4.18;73.62;95175.66;5032553;28;20037;-48
2022/04/12 05:32:47;;;;;;;;;;;8.00;59.70;;;4.44;73.37;95176.13;5031986;28;20508;-48
2022/04/12 05:35:14;;;;;;;4.93;3.47;;;8.30;59.50;;;4.85;72.60;95175.81;5014904;28;19912;-48
2022/04/12 05:37:52;;;;;;;5.13;3.63;;;8.70;59.50;;;5.21;70.78;95184.34;5031400;28;20037;-49
2022/04/12 05:40:22;;;;;;;9.48;3.80;;;9.10;59.20;;;5.54;70.67;95166.84;5032254;28;20032;-48
2022/04/12 05:42:51;;;;;;;7.95;3.70;;;9.50;59.00;;;5.85;68.79;95173.34;5030650;28;20032;-48
2022/04/12 05:45:25;;;;;;;7.65;3.95;;;9.90;58.50;;;6.23;66.89;95179.66;5032242;28;20030;-48
2022/04/12 05:47:53;;;;;;;6.75;3.53;;;10.30;58.00;;;6.52;65.40;95167.06;5031207;28;20484;-48
2022/04/12 05:50:27;;;;;;;7.30;3.50;;;10.80;57.40;;;6.90;65.97;95170.59;5024021;28;20374;-48
2022/04/12 05:52:54;;;;;;;9.68;4.03;;;11.20;56.80;;;7.27;64.93;95178.59;4995111;28;20038;-51
2022/04/12 05:55:23;;;;;;;10.02;4.15;;;11.60;56.40;;;7.56;64.56;95181.72;5044262;28;20036;-49
2022/04/12 05:57:49;;;;;;;7.32;4.30;;;12.00;55.80;;;7.73;62.53;95170.94;5027482;28;20127;-49
2022/04/12 06:00:15;;;;;;;7.18;4.30;;;12.40;55.20;;;8.13;61.96;95179.38;5044035;28;20045;-50
2022/04/12 06:02:41;;;;;;;10.90;4.32;;;12.80;54.60;;;8.46;60.92;95186.97;5044291;28;20032;-49
2022/04/12 06:05:08;;;;;;;7.50;5.25;;;13.10;54.70;;;8.69;60.29;95195.53;5012131;28;20142;-49
2022/04/12 06:07:34;;;;;;;7.57;4.45;;;13.30;53.60;;;9.07;59.07;95202.25;5044148;28;20030;-49
2022/04/12 06:10:01;;;;;;;8.30;4.95;;;13.70;53.00;;;9.21;58.65;95187.41;5012369;28;20370;-49
2022/04/12 06:12:36;;;;;;;8.77;4.32;;;14.00;52.20;;;9.74;57.17;95189.75;5012306;28;20036;-48
2022/04/12 06:15:06;;;;;;;8.32;4.05;;;14.40;51.60;;;10.15;56.29;95189.66;5042862;28;20034;-51
2022/04/12 06:17:35;;;;;;;5.93;4.30;;;14.70;51.10;;;10.45;55.58;95194.13;5026570;28;20394;-51
2022/04/12 06:20:13;;;;;;;7.22;4.18;;;15.00;50.70;;;11.02;53.55;95198.06;5042467;28;20022;-50
2022/04/12 06:22:39;;;;;;;6.47;4.10;;;15.40;50.00;;;11.27;52.21;95196.31;5043720;28;20029;-48
2022/04/12 06:25:10;;;;;;;4.53;3.60;;;15.80;49.50;;;11.59;50.39;95198.47;5012124;28;20532;-51
2022/04/12 06:27:51;;;;;;;7.65;3.80;;;16.10;48.60;;;11.76;49.98;95206.06;5043728;28;20030;-48
2022/04/12 06:30:26;;;;;;;6.15;3.70;;;16.50;47.80;;;11.95;50.13;95204.31;5043717;28;20026;-52
2022/04/12 06:32:53;;;;;;;6.20;3.65;;;16.60;47.30;;;12.08;49.63;95212.72;5043654;28;20030;-49
2022/04/12 06:35:20;;;;;;;4.45;3.40;;;16.80;46.90;;;12.41;49.33;95219.84;5044123;28;20041;-51
2022/04/12 06:37:53;;;;;;;8.43;4.47;;;17.00;46.40;;;12.70;48.76;95211.75;5043872;28;20115;-50
2022/04/12 06:40:21;;;;;;;7.22;3.58;;;17.30;45.80;;;12.95;48.13;95220.53;5026901;28;20030;-53
2022/04/12 06:42:51;;;;;;;6.53;4.18;;;17.40;45.40;;;13.03;47.83;95208.38;5043798;28;20416;-50
2022/04/12 06:45:27;;;;;;;6.90;3.85;;;17.60;44.90;;;12.94;47.37;95210.91;5043697;28;20018;-51
2022/04/12 06:48:02;;;;;;;5.80;3.92;;;17.70;44.20;;;13.06;47.68;95205.94;5043643;28;20032;-49
2022/04/12 06:50:28;;;;;;;5.15;3.97;;;17.90;43.80;;;13.13;47.45;95206.38;5022979;28;20031;-49
2022/04/12 06:52:59;;;;;;;8.45;3.40;;;18.00;43.70;;;13.18;46.79;95200.94;5012057;28;20043;-50
2022/04/12 06:55:27;;;;;;;6.25;3.42;;;18.20;43.00;;;13.40;46.02;95210.28;5047131;28;20029;-51
2022/04/12 06:57:53;;;;;;;7.63;3.70;;;18.40;42.50;;;13.61;46.22;95202.75;5047093;28;20033;-52
2022/04/12 07:00:20;;;;;;;6.88;4.03;;;18.60;42.30;;;13.86;45.51;95205.00;5046747;28;20042;-59
2022/04/12 07:02:46;;;;;;;5.18;3.85;;;18.80;41.90;;;13.99;44.03;95205.31;5047298;28;20025;-59
2022/04/12 07:05:21;;;;;;;5.65;3.72;;;19.00;41.20;;;14.19;43.82;95204.94;5047150;28;20022;-58
2022/04/12 07:07:46;;;;;;;7.00;3.58;;;19.30;40.70;;;14.46;43.60;95200.69;5047363;28;20022;-59
2022/04/12 07:10:15;;;;;;;6.72;4.20;;;19.60;40.50;;;14.71;43.90;95207.47;5047010;28;20524;-59
2022/04/12 07:12:42;;;;;;;4.18;3.78;;;19.80;40.10;;;14.77;43.78;95201.69;5030261;28;20026;-58
2022/04/12 07:15:10;;;;;;;5.53;4.13;;;20.00;39.80;;;14.82;43.46;95206.16;5047133;28;20034;-59
2022/04/12 07:17:39;;;;;;;6.70;4.20;;;20.20;39.40;;;15.21;43.19;95207.47;5047016;28;20560;-59
2022/04/12 07:20:05;;;;;;;6.30;3.80;;;20.40;39.00;;;15.26;42.30;95200.09;5015075;28;20060;-59
2022/04/12 07:22:31;;;;;;;4.95;3.83;;;20.50;38.50;;;15.36;42.13;95195.59;5013878;28;20026;-58
2022/04/12 07:24:57;;;;;;;3.92;3.22;;;20.60;37.90;;;15.04;42.40;95195.50;5015228;28;20041;-60
2022/04/12 07:27:34;;;;;;;6.63;3.53;;;20.70;37.60;;;15.00;42.39;95193.72;5046703;28;20464;-58
2022/04/12 07:30:10;;;;;;;10.02;4.70;;;20.70;36.90;;;14.90;42.98;95201.97;5046691;28;20499;-60
2022/04/12 07:32:36;;;;;;;7.35;3.42;;;20.70;36.60;;;15.01;43.02;95208.69;5046742;28;20492;-59
2022/04/12 07:35:02;;;;;;;4.47;3.15;;;20.70;36.60;;;15.07;41.74;95209.38;5013768;28;20045;-59
2022/04/12 07:37:41;;;;;;;5.10;3.10;;;20.80;36.50;;;15.32;41.05;95203.44;5046719;28;20034;-59
2022/04/12 07:40:08;;;;;;;7.10;3.30;;;20.90;36.10;;;15.22;39.99;95203.69;5046086;28;20053;-59
2022/04/12 07:42:37;;;;;;;5.13;2.95;;;21.00;35.60;;;15.17;40.82;95195.78;5014781;28;20477;-58
2022/04/12 07:45:09;;;;;;;4.80;2.95;;;21.00;35.20;;;14.93;40.54;95196.81;5014863;28;20037;-59
2022/04/12 07:47:35;;;;;;;7.53;3.50;;;21.10;34.60;;;14.67;41.64;95191.19;5030030;28;20026;-60
2022/04/12 07:50:03;;;;;;;4.45;3.25;;;21.10;34.50;;;14.49;42.23;95184.03;5045536;28;20291;-60
2022/04/12 07:52:31;;;;;;;4.68;3.30;;;21.20;34.20;;;14.89;42.15;95200.41;5014884;28;20066;-59
2022/04/12 07:54:57;;;;;;;6.07;3.25;;;21.20;34.20;;;15.24;40.91;95201.50;5014790;28;20378;-59
2022/04/12 07:57:35;;;;;;;4.55;3.33;;;21.30;34.10;;;15.23;40.85;95202.56;5014683;28;20026;-60
2022/04/12 08:00:01;;;;;;;7.53;3.28;;;21.50;33.70;;;15.54;40.67;95208.03;5014160;28;20052;-60
2022/04/12 08:02:30;;;;;;;7.22;3.28;;;21.60;33.60;;;15.87;40.03;95197.88;5014482;28;20030;-60
2022/04/12 08:04:55;;;;;;;6.53;3.30;;;21.70;33.60;;;15.90;39.61;95208.00;5029299;28;20030;-60
2022/04/12 08:07:24;;;;;;;4.32;3.40;;;21.90;33.30;;;16.36;39.07;95206.81;5012935;28;20049;-60
2022/04/12 08:09:53;;;;;;;5.57;3.33;;;22.20;32.90;;;16.62;37.14;95214.19;5012909;28;20036;-59
2022/04/12 08:12:19;;;;;;;6.90;3.45;;;22.50;32.70;;;16.68;37.28;95206.78;5029777;28;20105;-60
2022/04/12 08:14:44;;;;;;;6.13;3.35;;;22.70;32.20;;;16.72;38.33;95202.34;5029358;28;20145;-60
2022/04/12 08:17:10;;;;;;;6.03;3.75;;;22.80;31.90;;;16.69;37.09;95208.34;5046193;28;20033;-60
2022/04/12 08:19:48;;;;;;;4.85;3.97;;;23.10;31.40;;;16.78;37.41;95201.13;5013748;28;20034;-60
2022/04/12 08:22:19;;;;;;;5.75;4.13;;;23.20;31.10;;;16.87;37.98;95201.94;5046187;28;20037;-60
2022/04/12 08:24:52;;;;;;;5.18;4.03;;;23.40;31.00;;;17.11;37.33;95205.00;5014093;28;20099;-59
2022/04/12 08:27:21;;;;;;;7.53;4.03;;;23.50;30.70;;;17.31;37.28;95208.97;5029023;28;20022;-60
2022/04/12 08:29:50;;;;;;;4.70;3.55;;;23.70;30.50;;;17.32;36.73;95210.53;5014241;28;20038;-60
2022/04/12 08:32:16;;;;;;;4.50;3.30;;;23.80;30.20;;;17.71;36.37;95202.63;5045943;28;20037;-60
2022/04/12 08:34:54;;;;;;;5.47;3.53;;;23.90;30.00;;;17.87;34.63;95211.81;5045499;28;20385;-59
2022/04/12 08:37:26;;;;;;;6.65;3.40;;;24.20;29.60;;;18.26;34.63;95209.97;5013769;28;20026;-59
2022/04/12 08:40:01;;;;;;;6.00;3.40;;;24.40;29.30;;;18.43;32.17;95207.22;5013696;28;20508;-59
2022/04/12 08:42:27;;;;;;;5.35;3.45;;;24.70;28.70;;;18.42;32.99;95204.84;5045419;28;20026;-59
2022/04/12 08:44:52;;;;;;;6.55;3.95;;;24.90;28.50;;;18.88;32.32;95203.25;5013741;28;20481;-59
2022/04/12 08:47:19;;;;;;;5.82;3.58;;;25.20;28.20;;;19.43;31.67;95194.13;5013581;28;20026;-58
2022/04/12 08:50:01;;;;;;;6.30;3.92;;;25.50;28.00;;;19.56;32.08;95201.19;5013435;28;20030;-60
2022/04/12 08:52:30;;;;;;;5.55;3.67;;;25.90;27.70;;;20.38;31.86;95216.00;5019825;28;20078;-60
2022/04/12 08:54:56;;;;;;;5.55;4.22;;;26.30;27.70;;;20.72;29.13;95215.59;5045065;28;20049;-60
2022/04/12 08:57:31;;;;;;;6.25;4.00;;;26.80;27.30;;;21.15;29.01;95214.25;5045214;28;20123;-60
2022/04/12 09:00:07;;;;;;;5.07;4.10;;;27.30;26.80;;;21.30;29.74;95203.81;5013044;28;20555;-59
2022/04/12 09:02:33;;;;;;;7.53;3.90;;;27.70;26.40;;;20.87;29.67;95210.63;5045272;28;20041;-60
2022/04/12 09:05:02;;;;;;;6.28;4.45;;;28.10;26.00;;;21.36;29.35;95205.97;5045095;28;20030;-60
2022/04/12 09:07:46;;;;;;;6.30;4.75;;;28.40;25.60;;;21.69;29.72;95208.47;5013218;28;20508;-60
2022/04/12 09:10:16;;;;;;;7.13;4.45;;;28.70;25.50;;;21.76;29.48;95204.38;5028103;28;20029;-59
2022/04/12 09:12:42;;;;;;;6.60;4.50;;;28.80;25.40;;;22.08;29.08;95205.25;5044692;28;20104;-60
2022/04/12 09:15:15;;;;;;;5.80;4.65;;;29.00;25.20;;;22.44;29.03;95198.06;5013070;28;20463;-59
2022/04/12 09:17:44;;;;;;;8.07;4.60;;;29.20;25.00;;;22.86;29.04;95204.53;5043455;28;20384;-60
2022/04/12 09:20:30;;;;;;;5.57;4.85;;;29.60;25.00;;;;;;5012927;28;20492;-60
2022/04/12 09:23:00;;;;;;;6.43;5.05;;;29.90;24.60;;;23.33;27.24;95184.66;5008072;28;20092;-60
2022/04/12 09:25:31;;;;;;;8.20;4.78;;;30.30;24.20;;;23.46;26.59;95198.91;5037913;28;20035;-61
2022/04/12 09:28:01;;;;;;;6.47;4.68;;;30.60;23.70;;;23.63;26.64;95196.91;5031376;28;20026;-61
2022/04/12 09:30:31;;;;;;;6.43;4.93;;;30.80;23.70;;;23.22;26.44;95191.00;5032042;28;20033;-61
2022/04/12 09:32:59;;;;;;;7.43;5.30;;;31.00;23.20;;;22.60;27.43;95190.72;5018944;28;20162;-60
2022/04/12 09:35:35;;;;;;;5.63;4.82;;;31.10;22.80;;;22.56;27.25;95192.53;5004647;28;20493;-61
2022/04/12 09:38:01;;;;;;;7.07;4.90;;;31.00;22.30;;;23.16;26.96;95201.38;5044509;28;20042;-60
2022/04/12 09:40:30;;;;;;;5.85;5.13;;;31.00;22.50;;;23.20;26.62;95193.28;5044372;28;20033;-61
2022/04/12 09:43:02;;;;;;;8.70;5.28;;;30.90;22.40;;;21.93;27.53;95185.88;5046419;28;20096;-61
2022/04/12 09:45:31;;;;;;;7.63;4.82;;;30.70;22.20;;;21.92;26.50;95195.16;5018310;28;20028;-61
2022/04/12 09:48:05;;;;;;;9.63;5.00;;;30.50;22.00;;;21.75;27.76;95187.34;5021040;28;20060;-61
2022/04/12 09:50:36;;;;;;;7.18;5.00;;;30.40;22.10;;;21.84;27.03;95182.56;5008994;28;20030;-61
2022/04/12 09:53:10;;;;;;;7.72;5.90;;;30.20;22.00;;;22.18;26.20;95200.13;5003658;28;20030;-58
2022/04/12 09:55:49;;;;;;;6.55;5.53;;;30.20;21.90;;;22.83;25.99;95190.88;4999567;28;20117;-61
2022/04/12 09:58:18;;;;;;;7.03;5.72;;;30.20;21.90;;;23.02;25.99;95187.47;5032923;28;20064;-61
2022/04/12 10:00:48;;;;;;;6.15;5.25;;;30.30;22.00;;;23.12;25.78;95186.91;5017890;28;20046;-60
2022/04/12 10:03:20;;;;;;;7.30;5.28;;;30.40;22.00;;;23.03;25.74;95189.03;5012492;28;20017;-60
2022/04/12 10:05:51;;;;;;;6.82;5.22;;;30.50;21.90;;;23.58;25.36;95183.63;5021411;28;20399;-61
2022/04/12 10:08:30;;;;;;;5.80;5.10;;;30.70;21.90;;;23.74;25.43;95190.56;5011626;28;20110;-61
2022/04/12 10:10:56;;;;;;;7.70;5.47;;;31.10;21.80;;;23.69;25.18;95190.06;5004366;28;20556;-61
2022/04/12 10:13:23;;;;;;;7.38;4.90;;;31.50;21.70;;;23.80;24.75;95188.34;5016180;28;20113;-61
2022/04/12 10:15:49;;;;;;;7.10;5.35;;;31.80;21.30;;;24.30;24.46;95180.34;5016508;28;20056;-60
2022/04/12 10:18:19;;;;;;;5.68;5.05;;;31.90;21.20;;;24.54;24.41;95179.22;5006469;28;20031;-61
2022/04/12 10:20:54;;;;;;;6.50;5.45;;;32.00;21.20;;;24.79;25.20;95183.16;5012596;28;20025;-61
2022/04/12 10:23:24;;;;;;;6.70;6.10;;;32.30;21.00;;;24.44;24.79;95175.97;5011983;28;20034;-61
2022/04/12 10:25:52;;;;;;;6.40;5.80;;;32.60;20.90;;;24.77;25.12;95173.75;5002585;28;20033;-61
2022/04/12 10:28:19;;;;;;;7.57;5.82;;;32.80;20.70;;;24.78;24.79;95169.88;5015941;28;20358;-60
2022/04/12 10:30:45;;;;;;;6.78;6.07;;;33.00;20.60;;;25.32;23.89;95175.00;5028124;28;20033;-61
2022/04/12 10:33:26;;;;;;;6.70;5.70;;;33.30;20.50;;;26.00;23.74;95166.84;5011338;28;20104;-61
2022/04/12 10:36:02;;;;;;;8.73;5.88;;;33.70;20.40;;;26.00;24.38;95161.41;5001287;28;20439;-60
2022/04/12 10:38:43;;;;;;;6.53;5.82;;;34.10;20.40;;;26.28;23.87;95163.63;5023261;28;20104;-61
2022/04/12 10:41:38;;;;;;;8.50;5.60;;;34.50;20.30;;;25.58;25.01;95165.97;5014326;28;20026;-61
2022/04/12 10:44:19;;;;;;;9.60;5.85;;;34.70;20.10;;;25.64;24.13;95154.75;5015541;28;20042;-61